sensor_id;sensor_type;location;lat;lon;timestamp;P1;durP1;ratioP1;P2;durP2;ratioP2
7330;SDS011;3706;49.198;7.064;2023-08-06T00:00:56;7.87;;;5.53;;
7330;SDS011;3706;49.198;7.064;2023-08-06T00:03:23;9.70;;;3.57;;
7330;SDS011;3706;49.198;7.064;2023-08-06T00:05:50;5.33;;;3.30;;
7330;SDS011;3706;49.198;7.064;2023-08-06T00:08:17;5.53;;;3.00;;
7330;SDS011;3706;49.198;7.064;2023-08-06T00:10:46;5.63;;;3.20;;
7330;SDS011;3706;49.198;7.064;2023-08-06T00:13:14;5.10;;;2.83;;
7330;SDS011;3706;49.198;7.064;2023-08-06T00:15:40;5.40;;;2.80;;
7330;SDS011;3706;49.198;7.064;2023-08-06T00:18:07;5.07;;;2.93;;
7330;SDS011;3706;49.198;7.064;2023-08-06T00:20:34;3.50;;;2.00;;
7330;SDS011;3706;49.198;7.064;2023-08-06T00:23:01;3.97;;;3.03;;
7330;SDS011;3706;49.198;7.064;2023-08-06T00:25:28;5.40;;;2.67;;
7330;SDS011;3706;49.198;7.064;2023-08-06T00:27:56;6.20;;;2.60;;
7330;SDS011;3706;49.198;7.064;2023-08-06T00:30:23;3.77;;;2.67;;
7330;SDS011;3706;49.198;7.064;2023-08-06T00:32:50;4.27;;;2.20;;
7330;SDS011;3706;49.198;7.064;2023-08-06T00:35:17;7.83;;;3.97;;
7330;SDS011;3706;49.198;7.064;2023-08-06T00:37:44;3.57;;;2.27;;
7330;SDS011;3706;49.198;7.064;2023-08-06T00:40:11;4.70;;;2.80;;
7330;SDS011;3706;49.198;7.064;2023-08-06T00:42:38;4.73;;;2.40;;
7330;SDS011;3706;49.198;7.064;2023-08-06T00:45:07;5.57;;;2.37;;
7330;SDS011;3706;49.198;7.064;2023-08-06T00:47:34;5.57;;;2.63;;
7330;SDS011;3706;49.198;7.064;2023-08-06T00:50:01;5.90;;;3.23;;
7330;SDS011;3706;49.198;7.064;2023-08-06T00:52:28;5.30;;;2.77;;
7330;SDS011;3706;49.198;7.064;2023-08-06T00:54:55;4.60;;;3.00;;
7330;SDS011;3706;49.198;7.064;2023-08-06T00:57:22;4.67;;;2.63;;
7330;SDS011;3706;49.198;7.064;2023-08-06T00:59:51;5.80;;;2.83;;
7330;SDS011;3706;49.198;7.064;2023-08-06T01:02:20;7.77;;;3.60;;
7330;SDS011;3706;49.198;7.064;2023-08-06T01:04:47;4.93;;;2.57;;
7330;SDS011;3706;49.198;7.064;2023-08-06T01:07:16;7.73;;;4.23;;
7330;SDS011;3706;49.198;7.064;2023-08-06T01:09:53;3.53;;;2.63;;
7330;SDS011;3706;49.198;7.064;2023-08-06T01:12:31;6.17;;;3.20;;
7330;SDS011;3706;49.198;7.064;2023-08-06T01:15:05;4.40;;;1.77;;
7330;SDS011;3706;49.198;7.064;2023-08-06T01:17:45;4.90;;;1.97;;
7330;SDS011;3706;49.198;7.064;2023-08-06T01:20:12;7.67;;;3.87;;
7330;SDS011;3706;49.198;7.064;2023-08-06T01:22:40;6.50;;;2.57;;
7330;SDS011;3706;49.198;7.064;2023-08-06T01:25:08;5.77;;;1.93;;
7330;SDS011;3706;49.198;7.064;2023-08-06T01:27:37;3.87;;;1.90;;
7330;SDS011;3706;49.198;7.064;2023-08-06T01:30:11;5.80;;;2.23;;
7330;SDS011;3706;49.198;7.064;2023-08-06T01:32:42;4.93;;;3.00;;
7330;SDS011;3706;49.198;7.064;2023-08-06T01:35:11;3.13;;;1.63;;
7330;SDS011;3706;49.198;7.064;2023-08-06T01:37:41;6.20;;;2.47;;
7330;SDS011;3706;49.198;7.064;2023-08-06T01:40:09;4.07;;;1.80;;
7330;SDS011;3706;49.198;7.064;2023-08-06T01:42:37;6.93;;;2.40;;
7330;SDS011;3706;49.198;7.064;2023-08-06T01:45:04;5.27;;;1.70;;
7330;SDS011;3706;49.198;7.064;2023-08-06T01:47:32;3.07;;;1.40;;
7330;SDS011;3706;49.198;7.064;2023-08-06T01:49:59;3.57;;;1.53;;
7330;SDS011;3706;49.198;7.064;2023-08-06T01:52:26;4.20;;;1.43;;
7330;SDS011;3706;49.198;7.064;2023-08-06T01:54:55;5.73;;;1.27;;
7330;SDS011;3706;49.198;7.064;2023-08-06T01:57:22;2.63;;;1.53;;
7330;SDS011;3706;49.198;7.064;2023-08-06T01:59:48;2.30;;;1.10;;
7330;SDS011;3706;49.198;7.064;2023-08-06T02:02:15;2.93;;;1.40;;
7330;SDS011;3706;49.198;7.064;2023-08-06T02:04:42;4.33;;;1.27;;
7330;SDS011;3706;49.198;7.064;2023-08-06T02:07:09;2.67;;;1.27;;
7330;SDS011;3706;49.198;7.064;2023-08-06T02:09:36;3.20;;;1.30;;
7330;SDS011;3706;49.198;7.064;2023-08-06T02:12:05;3.43;;;2.17;;
7330;SDS011;3706;49.198;7.064;2023-08-06T02:14:33;2.77;;;2.00;;
7330;SDS011;3706;49.198;7.064;2023-08-06T02:17:00;4.67;;;1.47;;
7330;SDS011;3706;49.198;7.064;2023-08-06T02:19:27;4.90;;;2.03;;
7330;SDS011;3706;49.198;7.064;2023-08-06T02:21:54;3.33;;;1.70;;
7330;SDS011;3706;49.198;7.064;2023-08-06T02:24:20;3.50;;;1.43;;
7330;SDS011;3706;49.198;7.064;2023-08-06T02:26:47;5.67;;;1.60;;
7330;SDS011;3706;49.198;7.064;2023-08-06T02:29:17;2.17;;;1.20;;
7330;SDS011;3706;49.198;7.064;2023-08-06T02:31:44;3.63;;;1.60;;
7330;SDS011;3706;49.198;7.064;2023-08-06T02:34:11;3.60;;;1.47;;
7330;SDS011;3706;49.198;7.064;2023-08-06T02:36:38;3.63;;;1.40;;
7330;SDS011;3706;49.198;7.064;2023-08-06T02:39:05;4.20;;;1.30;;
7330;SDS011;3706;49.198;7.064;2023-08-06T02:41:32;3.07;;;1.50;;
7330;SDS011;3706;49.198;7.064;2023-08-06T02:43:59;7.50;;;2.00;;
7330;SDS011;3706;49.198;7.064;2023-08-06T02:46:27;4.17;;;2.23;;
7330;SDS011;3706;49.198;7.064;2023-08-06T02:48:54;5.83;;;2.37;;
7330;SDS011;3706;49.198;7.064;2023-08-06T02:51:21;4.03;;;1.60;;
7330;SDS011;3706;49.198;7.064;2023-08-06T02:53:47;3.00;;;1.50;;
7330;SDS011;3706;49.198;7.064;2023-08-06T02:56:14;5.37;;;1.50;;
7330;SDS011;3706;49.198;7.064;2023-08-06T02:58:41;3.17;;;1.30;;
7330;SDS011;3706;49.198;7.064;2023-08-06T03:01:08;5.30;;;1.87;;
7330;SDS011;3706;49.198;7.064;2023-08-06T03:03:36;6.80;;;1.63;;
7330;SDS011;3706;49.198;7.064;2023-08-06T03:06:03;3.70;;;1.60;;
7330;SDS011;3706;49.198;7.064;2023-08-06T03:08:30;3.80;;;1.63;;
7330;SDS011;3706;49.198;7.064;2023-08-06T03:10:57;3.23;;;1.30;;
7330;SDS011;3706;49.198;7.064;2023-08-06T03:13:24;2.10;;;1.50;;
7330;SDS011;3706;49.198;7.064;2023-08-06T03:15:51;4.80;;;1.90;;
7330;SDS011;3706;49.198;7.064;2023-08-06T03:18:19;3.23;;;1.47;;
7330;SDS011;3706;49.198;7.064;2023-08-06T03:20:48;4.77;;;1.70;;
7330;SDS011;3706;49.198;7.064;2023-08-06T03:23:15;4.87;;;1.50;;
7330;SDS011;3706;49.198;7.064;2023-08-06T03:25:42;5.13;;;1.60;;
7330;SDS011;3706;49.198;7.064;2023-08-06T03:28:09;4.00;;;1.47;;
7330;SDS011;3706;49.198;7.064;2023-08-06T03:30:36;5.53;;;1.70;;
7330;SDS011;3706;49.198;7.064;2023-08-06T03:33:03;3.87;;;1.67;;
7330;SDS011;3706;49.198;7.064;2023-08-06T03:35:30;6.07;;;1.60;;
7330;SDS011;3706;49.198;7.064;2023-08-06T03:37:58;6.67;;;2.17;;
7330;SDS011;3706;49.198;7.064;2023-08-06T03:40:25;5.13;;;2.13;;
7330;SDS011;3706;49.198;7.064;2023-08-06T03:42:52;6.27;;;2.23;;
7330;SDS011;3706;49.198;7.064;2023-08-06T03:45:19;4.60;;;1.63;;
7330;SDS011;3706;49.198;7.064;2023-08-06T03:47:46;7.03;;;1.60;;
7330;SDS011;3706;49.198;7.064;2023-08-06T03:50:13;4.97;;;1.83;;
7330;SDS011;3706;49.198;7.064;2023-08-06T03:52:40;6.53;;;2.43;;
7330;SDS011;3706;49.198;7.064;2023-08-06T03:55:08;3.73;;;1.63;;
7330;SDS011;3706;49.198;7.064;2023-08-06T03:57:35;5.23;;;2.00;;
7330;SDS011;3706;49.198;7.064;2023-08-06T04:00:02;4.23;;;1.60;;
7330;SDS011;3706;49.198;7.064;2023-08-06T04:02:30;3.13;;;1.50;;
7330;SDS011;3706;49.198;7.064;2023-08-06T04:04:57;7.07;;;2.43;;
7330;SDS011;3706;49.198;7.064;2023-08-06T04:07:24;3.00;;;1.50;;
7330;SDS011;3706;49.198;7.064;2023-08-06T04:09:54;3.30;;;1.43;;
7330;SDS011;3706;49.198;7.064;2023-08-06T04:12:24;3.57;;;1.30;;
7330;SDS011;3706;49.198;7.064;2023-08-06T04:14:51;3.47;;;1.47;;
7330;SDS011;3706;49.198;7.064;2023-08-06T04:17:19;3.87;;;1.60;;
7330;SDS011;3706;49.198;7.064;2023-08-06T04:19:47;2.73;;;1.27;;
7330;SDS011;3706;49.198;7.064;2023-08-06T04:22:15;2.97;;;1.47;;
7330;SDS011;3706;49.198;7.064;2023-08-06T04:24:41;3.90;;;1.60;;
7330;SDS011;3706;49.198;7.064;2023-08-06T04:27:09;2.33;;;1.40;;
7330;SDS011;3706;49.198;7.064;2023-08-06T04:29:37;3.50;;;1.20;;
7330;SDS011;3706;49.198;7.064;2023-08-06T04:32:05;5.60;;;1.63;;
7330;SDS011;3706;49.198;7.064;2023-08-06T04:34:34;3.17;;;1.53;;
7330;SDS011;3706;49.198;7.064;2023-08-06T04:37:01;3.37;;;1.13;;
7330;SDS011;3706;49.198;7.064;2023-08-06T04:39:29;1.93;;;1.30;;
7330;SDS011;3706;49.198;7.064;2023-08-06T04:41:56;4.07;;;1.53;;
7330;SDS011;3706;49.198;7.064;2023-08-06T04:44:23;3.03;;;1.30;;
7330;SDS011;3706;49.198;7.064;2023-08-06T04:46:52;3.30;;;1.43;;
7330;SDS011;3706;49.198;7.064;2023-08-06T04:49:19;5.93;;;1.67;;
7330;SDS011;3706;49.198;7.064;2023-08-06T04:51:47;2.70;;;1.50;;
7330;SDS011;3706;49.198;7.064;2023-08-06T04:54:14;2.93;;;1.03;;
7330;SDS011;3706;49.198;7.064;2023-08-06T04:56:41;5.63;;;1.50;;
7330;SDS011;3706;49.198;7.064;2023-08-06T04:59:08;3.33;;;1.40;;
7330;SDS011;3706;49.198;7.064;2023-08-06T05:01:35;2.67;;;1.37;;
7330;SDS011;3706;49.198;7.064;2023-08-06T05:04:03;3.20;;;1.47;;
7330;SDS011;3706;49.198;7.064;2023-08-06T05:06:30;1.70;;;1.10;;
7330;SDS011;3706;49.198;7.064;2023-08-06T05:08:57;1.17;;;1.07;;
7330;SDS011;3706;49.198;7.064;2023-08-06T05:11:24;2.43;;;1.30;;
7330;SDS011;3706;49.198;7.064;2023-08-06T05:13:51;2.27;;;0.87;;
7330;SDS011;3706;49.198;7.064;2023-08-06T05:16:18;3.13;;;1.50;;
7330;SDS011;3706;49.198;7.064;2023-08-06T05:18:45;3.50;;;1.20;;
7330;SDS011;3706;49.198;7.064;2023-08-06T05:21:13;1.67;;;0.83;;
7330;SDS011;3706;49.198;7.064;2023-08-06T05:23:41;5.80;;;1.30;;
7330;SDS011;3706;49.198;7.064;2023-08-06T05:26:08;2.13;;;1.20;;
7330;SDS011;3706;49.198;7.064;2023-08-06T05:28:35;1.53;;;0.97;;
7330;SDS011;3706;49.198;7.064;2023-08-06T05:31:05;1.80;;;1.07;;
7330;SDS011;3706;49.198;7.064;2023-08-06T05:33:32;4.17;;;1.40;;
7330;SDS011;3706;49.198;7.064;2023-08-06T05:35:59;2.40;;;1.07;;
7330;SDS011;3706;49.198;7.064;2023-08-06T05:38:27;1.43;;;0.83;;
7330;SDS011;3706;49.198;7.064;2023-08-06T05:40:55;0.77;;;0.77;;
7330;SDS011;3706;49.198;7.064;2023-08-06T05:43:22;3.47;;;1.40;;
7330;SDS011;3706;49.198;7.064;2023-08-06T05:45:49;2.10;;;1.00;;
7330;SDS011;3706;49.198;7.064;2023-08-06T05:48:16;1.50;;;0.80;;
7330;SDS011;3706;49.198;7.064;2023-08-06T05:50:43;1.47;;;0.90;;
7330;SDS011;3706;49.198;7.064;2023-08-06T05:53:10;2.30;;;1.50;;
7330;SDS011;3706;49.198;7.064;2023-08-06T05:55:39;3.10;;;1.00;;
7330;SDS011;3706;49.198;7.064;2023-08-06T05:58:06;2.23;;;0.97;;
7330;SDS011;3706;49.198;7.064;2023-08-06T06:00:33;1.00;;;0.77;;
7330;SDS011;3706;49.198;7.064;2023-08-06T06:03:00;1.83;;;1.03;;
7330;SDS011;3706;49.198;7.064;2023-08-06T06:05:27;0.70;;;0.70;;
7330;SDS011;3706;49.198;7.064;2023-08-06T06:07:54;2.40;;;0.70;;
7330;SDS011;3706;49.198;7.064;2023-08-06T06:10:21;1.07;;;0.97;;
7330;SDS011;3706;49.198;7.064;2023-08-06T06:12:50;1.63;;;0.97;;
7330;SDS011;3706;49.198;7.064;2023-08-06T06:15:17;0.90;;;0.80;;
7330;SDS011;3706;49.198;7.064;2023-08-06T06:17:44;1.10;;;0.77;;
7330;SDS011;3706;49.198;7.064;2023-08-06T06:20:10;2.03;;;0.70;;
7330;SDS011;3706;49.198;7.064;2023-08-06T06:22:37;0.90;;;0.60;;
7330;SDS011;3706;49.198;7.064;2023-08-06T06:25:05;0.90;;;0.70;;
7330;SDS011;3706;49.198;7.064;2023-08-06T06:27:32;0.53;;;0.47;;
7330;SDS011;3706;49.198;7.064;2023-08-06T06:30:00;0.53;;;0.53;;
7330;SDS011;3706;49.198;7.064;2023-08-06T06:32:29;1.27;;;0.90;;
7330;SDS011;3706;49.198;7.064;2023-08-06T06:34:56;1.27;;;0.80;;
7330;SDS011;3706;49.198;7.064;2023-08-06T06:37:23;1.73;;;0.57;;
7330;SDS011;3706;49.198;7.064;2023-08-06T06:39:50;1.77;;;1.30;;
7330;SDS011;3706;49.198;7.064;2023-08-06T06:42:17;1.80;;;1.00;;
7330;SDS011;3706;49.198;7.064;2023-08-06T06:44:44;1.53;;;0.60;;
7330;SDS011;3706;49.198;7.064;2023-08-06T06:47:12;1.60;;;0.80;;
7330;SDS011;3706;49.198;7.064;2023-08-06T06:49:39;1.17;;;0.63;;
7330;SDS011;3706;49.198;7.064;2023-08-06T06:52:06;0.30;;;0.30;;
7330;SDS011;3706;49.198;7.064;2023-08-06T06:54:33;0.87;;;0.70;;
7330;SDS011;3706;49.198;7.064;2023-08-06T06:57:00;1.70;;;0.63;;
7330;SDS011;3706;49.198;7.064;2023-08-06T06:59:27;0.63;;;0.57;;
7330;SDS011;3706;49.198;7.064;2023-08-06T07:01:54;0.50;;;0.50;;
7330;SDS011;3706;49.198;7.064;2023-08-06T07:04:22;1.13;;;0.53;;
7330;SDS011;3706;49.198;7.064;2023-08-06T07:06:49;1.20;;;0.60;;
7330;SDS011;3706;49.198;7.064;2023-08-06T07:09:17;1.50;;;0.70;;
7330;SDS011;3706;49.198;7.064;2023-08-06T07:11:44;0.60;;;0.60;;
7330;SDS011;3706;49.198;7.064;2023-08-06T07:14:11;0.40;;;0.40;;
7330;SDS011;3706;49.198;7.064;2023-08-06T07:16:39;0.87;;;0.57;;
7330;SDS011;3706;49.198;7.064;2023-08-06T07:19:06;0.87;;;0.60;;
7330;SDS011;3706;49.198;7.064;2023-08-06T07:21:34;0.53;;;0.53;;
7330;SDS011;3706;49.198;7.064;2023-08-06T07:24:01;1.53;;;0.67;;
7330;SDS011;3706;49.198;7.064;2023-08-06T07:26:28;0.73;;;0.73;;
7330;SDS011;3706;49.198;7.064;2023-08-06T07:28:55;0.33;;;0.30;;
7330;SDS011;3706;49.198;7.064;2023-08-06T07:31:22;1.37;;;0.80;;
7330;SDS011;3706;49.198;7.064;2023-08-06T07:33:49;0.70;;;0.70;;
7330;SDS011;3706;49.198;7.064;2023-08-06T07:36:16;1.07;;;0.60;;
7330;SDS011;3706;49.198;7.064;2023-08-06T07:38:44;1.40;;;0.80;;
7330;SDS011;3706;49.198;7.064;2023-08-06T07:41:11;2.63;;;0.70;;
7330;SDS011;3706;49.198;7.064;2023-08-06T07:43:38;0.70;;;0.70;;
7330;SDS011;3706;49.198;7.064;2023-08-06T07:46:05;1.03;;;0.53;;
7330;SDS011;3706;49.198;7.064;2023-08-06T07:48:32;1.13;;;0.60;;
7330;SDS011;3706;49.198;7.064;2023-08-06T07:50:59;0.60;;;0.60;;
7330;SDS011;3706;49.198;7.064;2023-08-06T07:53:26;1.63;;;0.67;;
7330;SDS011;3706;49.198;7.064;2023-08-06T07:55:56;0.57;;;0.57;;
7330;SDS011;3706;49.198;7.064;2023-08-06T07:58:23;2.63;;;0.90;;
7330;SDS011;3706;49.198;7.064;2023-08-06T08:00:51;0.90;;;0.60;;
7330;SDS011;3706;49.198;7.064;2023-08-06T08:03:18;1.90;;;0.80;;
7330;SDS011;3706;49.198;7.064;2023-08-06T08:05:44;1.13;;;0.87;;
7330;SDS011;3706;49.198;7.064;2023-08-06T08:08:11;0.70;;;0.70;;
7330;SDS011;3706;49.198;7.064;2023-08-06T08:10:38;0.80;;;0.63;;
7330;SDS011;3706;49.198;7.064;2023-08-06T08:13:07;1.43;;;0.67;;
7330;SDS011;3706;49.198;7.064;2023-08-06T08:15:34;1.37;;;0.67;;
7330;SDS011;3706;49.198;7.064;2023-08-06T08:18:01;2.00;;;0.50;;
7330;SDS011;3706;49.198;7.064;2023-08-06T08:20:28;1.50;;;0.40;;
7330;SDS011;3706;49.198;7.064;2023-08-06T08:22:57;0.60;;;0.60;;
7330;SDS011;3706;49.198;7.064;2023-08-06T08:25:25;2.03;;;1.23;;
7330;SDS011;3706;49.198;7.064;2023-08-06T08:27:53;0.67;;;0.67;;
7330;SDS011;3706;49.198;7.064;2023-08-06T08:30:21;0.70;;;0.70;;
7330;SDS011;3706;49.198;7.064;2023-08-06T08:32:49;0.80;;;0.77;;
7330;SDS011;3706;49.198;7.064;2023-08-06T08:35:16;1.60;;;1.00;;
7330;SDS011;3706;49.198;7.064;2023-08-06T08:37:43;1.77;;;0.80;;
7330;SDS011;3706;49.198;7.064;2023-08-06T08:40:10;0.73;;;0.73;;
7330;SDS011;3706;49.198;7.064;2023-08-06T08:42:37;1.30;;;0.90;;
7330;SDS011;3706;49.198;7.064;2023-08-06T08:45:06;1.50;;;1.07;;
7330;SDS011;3706;49.198;7.064;2023-08-06T08:47:40;1.07;;;1.00;;
7330;SDS011;3706;49.198;7.064;2023-08-06T08:50:08;1.20;;;1.00;;
7330;SDS011;3706;49.198;7.064;2023-08-06T08:52:36;1.70;;;1.20;;
7330;SDS011;3706;49.198;7.064;2023-08-06T08:55:05;1.43;;;1.10;;
7330;SDS011;3706;49.198;7.064;2023-08-06T08:57:34;2.77;;;1.73;;
7330;SDS011;3706;49.198;7.064;2023-08-06T09:00:01;1.87;;;1.60;;
7330;SDS011;3706;49.198;7.064;2023-08-06T09:02:28;2.60;;;1.53;;
7330;SDS011;3706;49.198;7.064;2023-08-06T09:04:59;2.97;;;2.23;;
7330;SDS011;3706;49.198;7.064;2023-08-06T09:07:28;2.50;;;1.70;;
7330;SDS011;3706;49.198;7.064;2023-08-06T09:09:59;3.10;;;1.90;;
7330;SDS011;3706;49.198;7.064;2023-08-06T09:12:30;3.03;;;2.13;;
7330;SDS011;3706;49.198;7.064;2023-08-06T09:14:57;2.60;;;2.00;;
7330;SDS011;3706;49.198;7.064;2023-08-06T09:17:24;3.17;;;2.00;;
7330;SDS011;3706;49.198;7.064;2023-08-06T09:19:53;3.37;;;2.03;;
7330;SDS011;3706;49.198;7.064;2023-08-06T09:22:21;3.10;;;2.40;;
7330;SDS011;3706;49.198;7.064;2023-08-06T09:24:48;2.90;;;1.70;;
7330;SDS011;3706;49.198;7.064;2023-08-06T09:27:15;3.27;;;1.77;;
7330;SDS011;3706;49.198;7.064;2023-08-06T09:29:43;2.37;;;1.90;;
7330;SDS011;3706;49.198;7.064;2023-08-06T09:32:11;3.13;;;1.87;;
7330;SDS011;3706;49.198;7.064;2023-08-06T09:34:39;3.23;;;1.70;;
7330;SDS011;3706;49.198;7.064;2023-08-06T09:37:08;3.13;;;1.93;;
7330;SDS011;3706;49.198;7.064;2023-08-06T09:39:38;2.17;;;1.90;;
7330;SDS011;3706;49.198;7.064;2023-08-06T09:42:06;2.00;;;1.80;;
7330;SDS011;3706;49.198;7.064;2023-08-06T09:44:33;3.07;;;2.07;;
7330;SDS011;3706;49.198;7.064;2023-08-06T09:47:01;3.53;;;1.97;;
7330;SDS011;3706;49.198;7.064;2023-08-06T09:49:40;3.97;;;1.97;;
7330;SDS011;3706;49.198;7.064;2023-08-06T09:52:09;2.83;;;2.13;;
7330;SDS011;3706;49.198;7.064;2023-08-06T09:54:39;2.70;;;1.97;;
7330;SDS011;3706;49.198;7.064;2023-08-06T09:57:06;1.90;;;1.67;;
7330;SDS011;3706;49.198;7.064;2023-08-06T09:59:33;5.27;;;1.77;;
7330;SDS011;3706;49.198;7.064;2023-08-06T10:02:01;2.40;;;1.70;;
7330;SDS011;3706;49.198;7.064;2023-08-06T10:04:33;2.30;;;1.30;;
7330;SDS011;3706;49.198;7.064;2023-08-06T10:07:00;3.37;;;1.90;;
7330;SDS011;3706;49.198;7.064;2023-08-06T10:09:27;2.33;;;1.83;;
7330;SDS011;3706;49.198;7.064;2023-08-06T10:11:55;2.13;;;1.70;;
7330;SDS011;3706;49.198;7.064;2023-08-06T10:14:24;3.07;;;2.00;;
7330;SDS011;3706;49.198;7.064;2023-08-06T10:16:55;1.93;;;1.70;;
7330;SDS011;3706;49.198;7.064;2023-08-06T10:19:24;2.73;;;2.07;;
7330;SDS011;3706;49.198;7.064;2023-08-06T10:22:08;4.13;;;1.80;;
7330;SDS011;3706;49.198;7.064;2023-08-06T10:24:48;4.17;;;1.93;;
7330;SDS011;3706;49.198;7.064;2023-08-06T10:27:28;3.30;;;1.80;;
7330;SDS011;3706;49.198;7.064;2023-08-06T10:29:56;3.93;;;1.70;;
7330;SDS011;3706;49.198;7.064;2023-08-06T10:32:50;2.50;;;1.70;;
7330;SDS011;3706;49.198;7.064;2023-08-06T10:35:27;3.60;;;2.10;;
7330;SDS011;3706;49.198;7.064;2023-08-06T10:38:04;3.63;;;2.20;;
7330;SDS011;3706;49.198;7.064;2023-08-06T10:40:34;3.30;;;2.03;;
7330;SDS011;3706;49.198;7.064;2023-08-06T10:43:03;7.17;;;2.60;;
7330;SDS011;3706;49.198;7.064;2023-08-06T10:45:34;3.10;;;2.13;;
7330;SDS011;3706;49.198;7.064;2023-08-06T10:48:02;3.43;;;2.30;;
7330;SDS011;3706;49.198;7.064;2023-08-06T10:50:29;5.20;;;2.40;;
7330;SDS011;3706;49.198;7.064;2023-08-06T10:52:57;5.03;;;2.33;;
7330;SDS011;3706;49.198;7.064;2023-08-06T10:55:30;5.57;;;2.13;;
7330;SDS011;3706;49.198;7.064;2023-08-06T10:57:56;3.60;;;2.07;;
7330;SDS011;3706;49.198;7.064;2023-08-06T11:00:25;3.90;;;2.00;;
7330;SDS011;3706;49.198;7.064;2023-08-06T11:02:53;3.37;;;2.00;;
7330;SDS011;3706;49.198;7.064;2023-08-06T11:05:20;3.43;;;1.90;;
7330;SDS011;3706;49.198;7.064;2023-08-06T11:07:47;2.37;;;1.87;;
7330;SDS011;3706;49.198;7.064;2023-08-06T11:10:16;4.70;;;1.77;;
7330;SDS011;3706;49.198;7.064;2023-08-06T11:12:43;2.57;;;1.80;;
7330;SDS011;3706;49.198;7.064;2023-08-06T11:15:10;1.87;;;1.60;;
7330;SDS011;3706;49.198;7.064;2023-08-06T11:17:39;3.93;;;1.87;;
7330;SDS011;3706;49.198;7.064;2023-08-06T11:20:08;4.23;;;1.90;;
7330;SDS011;3706;49.198;7.064;2023-08-06T11:22:36;3.50;;;2.07;;
7330;SDS011;3706;49.198;7.064;2023-08-06T11:25:04;3.67;;;1.97;;
7330;SDS011;3706;49.198;7.064;2023-08-06T11:27:32;6.13;;;2.07;;
7330;SDS011;3706;49.198;7.064;2023-08-06T11:29:59;1.47;;;1.37;;
7330;SDS011;3706;49.198;7.064;2023-08-06T11:32:26;2.43;;;1.70;;
7330;SDS011;3706;49.198;7.064;2023-08-06T11:34:55;1.70;;;1.27;;
7330;SDS011;3706;49.198;7.064;2023-08-06T11:37:22;1.77;;;1.37;;
7330;SDS011;3706;49.198;7.064;2023-08-06T11:39:50;1.10;;;1.00;;
7330;SDS011;3706;49.198;7.064;2023-08-06T11:42:18;2.13;;;1.07;;
7330;SDS011;3706;49.198;7.064;2023-08-06T11:44:45;1.50;;;0.90;;
7330;SDS011;3706;49.198;7.064;2023-08-06T11:47:12;2.17;;;1.23;;
7330;SDS011;3706;49.198;7.064;2023-08-06T11:49:41;1.47;;;1.20;;
7330;SDS011;3706;49.198;7.064;2023-08-06T11:52:15;2.30;;;1.20;;
7330;SDS011;3706;49.198;7.064;2023-08-06T11:54:44;1.27;;;1.10;;
7330;SDS011;3706;49.198;7.064;2023-08-06T11:57:12;1.60;;;1.13;;
7330;SDS011;3706;49.198;7.064;2023-08-06T11:59:39;2.47;;;1.03;;
7330;SDS011;3706;49.198;7.064;2023-08-06T12:02:07;1.27;;;1.07;;
7330;SDS011;3706;49.198;7.064;2023-08-06T12:07:31;0.60;;;0.60;;
7330;SDS011;3706;49.198;7.064;2023-08-06T12:10:02;2.17;;;1.00;;
7330;SDS011;3706;49.198;7.064;2023-08-06T12:12:30;1.20;;;1.10;;
7330;SDS011;3706;49.198;7.064;2023-08-06T12:14:57;1.17;;;0.90;;
7330;SDS011;3706;49.198;7.064;2023-08-06T12:17:24;4.13;;;1.30;;
7330;SDS011;3706;49.198;7.064;2023-08-06T12:19:52;4.73;;;1.70;;
7330;SDS011;3706;49.198;7.064;2023-08-06T12:22:18;4.17;;;1.23;;
7330;SDS011;3706;49.198;7.064;2023-08-06T12:24:47;2.43;;;1.50;;
7330;SDS011;3706;49.198;7.064;2023-08-06T12:27:14;1.30;;;0.97;;
7330;SDS011;3706;49.198;7.064;2023-08-06T12:29:42;1.60;;;1.03;;
7330;SDS011;3706;49.198;7.064;2023-08-06T12:32:09;3.83;;;1.63;;
7330;SDS011;3706;49.198;7.064;2023-08-06T12:34:37;3.07;;;1.40;;
7330;SDS011;3706;49.198;7.064;2023-08-06T12:37:05;2.73;;;1.03;;
7330;SDS011;3706;49.198;7.064;2023-08-06T12:39:32;1.13;;;1.03;;
7330;SDS011;3706;49.198;7.064;2023-08-06T12:42:01;2.60;;;1.10;;
7330;SDS011;3706;49.198;7.064;2023-08-06T12:44:28;1.80;;;1.20;;
7330;SDS011;3706;49.198;7.064;2023-08-06T12:46:55;4.40;;;1.20;;
7330;SDS011;3706;49.198;7.064;2023-08-06T12:49:23;2.90;;;1.20;;
7330;SDS011;3706;49.198;7.064;2023-08-06T12:51:51;3.13;;;1.10;;
7330;SDS011;3706;49.198;7.064;2023-08-06T12:54:18;1.63;;;1.20;;
7330;SDS011;3706;49.198;7.064;2023-08-06T12:56:46;3.67;;;1.30;;
7330;SDS011;3706;49.198;7.064;2023-08-06T12:59:15;3.93;;;0.97;;
7330;SDS011;3706;49.198;7.064;2023-08-06T13:01:43;3.13;;;0.93;;
7330;SDS011;3706;49.198;7.064;2023-08-06T13:04:10;1.90;;;1.00;;
7330;SDS011;3706;49.198;7.064;2023-08-06T13:06:38;2.87;;;1.20;;
7330;SDS011;3706;49.198;7.064;2023-08-06T13:09:05;1.57;;;1.10;;
7330;SDS011;3706;49.198;7.064;2023-08-06T13:11:33;3.67;;;1.20;;
7330;SDS011;3706;49.198;7.064;2023-08-06T13:14:04;1.83;;;1.00;;
7330;SDS011;3706;49.198;7.064;2023-08-06T13:16:33;3.10;;;1.43;;
7330;SDS011;3706;49.198;7.064;2023-08-06T13:19:00;1.73;;;0.80;;
7330;SDS011;3706;49.198;7.064;2023-08-06T13:21:30;3.73;;;1.20;;
7330;SDS011;3706;49.198;7.064;2023-08-06T13:23:59;2.57;;;1.43;;
7330;SDS011;3706;49.198;7.064;2023-08-06T13:26:26;1.90;;;1.17;;
7330;SDS011;3706;49.198;7.064;2023-08-06T13:28:53;1.60;;;1.27;;
7330;SDS011;3706;49.198;7.064;2023-08-06T13:31:20;1.00;;;0.90;;
7330;SDS011;3706;49.198;7.064;2023-08-06T13:33:49;2.07;;;0.93;;
7330;SDS011;3706;49.198;7.064;2023-08-06T13:36:16;1.20;;;1.00;;
7330;SDS011;3706;49.198;7.064;2023-08-06T13:38:43;1.80;;;1.13;;
7330;SDS011;3706;49.198;7.064;2023-08-06T13:41:10;4.17;;;2.17;;
7330;SDS011;3706;49.198;7.064;2023-08-06T13:43:37;2.30;;;1.60;;
7330;SDS011;3706;49.198;7.064;2023-08-06T13:46:04;2.17;;;1.10;;
7330;SDS011;3706;49.198;7.064;2023-08-06T13:48:31;0.93;;;0.93;;
7330;SDS011;3706;49.198;7.064;2023-08-06T13:50:59;1.90;;;1.70;;
7330;SDS011;3706;49.198;7.064;2023-08-06T13:53:27;1.43;;;1.17;;
7330;SDS011;3706;49.198;7.064;2023-08-06T13:55:55;2.50;;;1.10;;
7330;SDS011;3706;49.198;7.064;2023-08-06T13:58:22;2.33;;;1.33;;
7330;SDS011;3706;49.198;7.064;2023-08-06T14:00:50;3.47;;;0.93;;
7330;SDS011;3706;49.198;7.064;2023-08-06T14:03:19;1.30;;;0.80;;
7330;SDS011;3706;49.198;7.064;2023-08-06T14:05:46;0.97;;;0.80;;
7330;SDS011;3706;49.198;7.064;2023-08-06T14:08:14;1.30;;;1.07;;
7330;SDS011;3706;49.198;7.064;2023-08-06T14:10:43;1.40;;;0.63;;
7330;SDS011;3706;49.198;7.064;2023-08-06T14:13:10;3.00;;;0.63;;
7330;SDS011;3706;49.198;7.064;2023-08-06T14:15:37;1.53;;;0.80;;
7330;SDS011;3706;49.198;7.064;2023-08-06T14:18:05;0.90;;;0.80;;
7330;SDS011;3706;49.198;7.064;2023-08-06T14:20:33;1.07;;;0.80;;
7330;SDS011;3706;49.198;7.064;2023-08-06T14:23:00;2.47;;;1.30;;
7330;SDS011;3706;49.198;7.064;2023-08-06T14:25:28;3.13;;;1.03;;
7330;SDS011;3706;49.198;7.064;2023-08-06T14:27:55;2.13;;;0.90;;
7330;SDS011;3706;49.198;7.064;2023-08-06T14:30:22;1.53;;;1.17;;
7330;SDS011;3706;49.198;7.064;2023-08-06T14:32:49;6.83;;;6.20;;
7330;SDS011;3706;49.198;7.064;2023-08-06T14:35:16;2.50;;;1.23;;
7330;SDS011;3706;49.198;7.064;2023-08-06T14:37:43;1.40;;;1.00;;
7330;SDS011;3706;49.198;7.064;2023-08-06T14:40:11;2.10;;;1.30;;
7330;SDS011;3706;49.198;7.064;2023-08-06T14:42:39;2.20;;;1.50;;
7330;SDS011;3706;49.198;7.064;2023-08-06T14:45:06;2.93;;;1.30;;
7330;SDS011;3706;49.198;7.064;2023-08-06T14:47:33;1.70;;;1.20;;
7330;SDS011;3706;49.198;7.064;2023-08-06T14:50:00;2.10;;;1.27;;
7330;SDS011;3706;49.198;7.064;2023-08-06T14:52:27;3.23;;;1.20;;
7330;SDS011;3706;49.198;7.064;2023-08-06T14:54:54;1.23;;;0.90;;
7330;SDS011;3706;49.198;7.064;2023-08-06T14:57:21;1.30;;;1.00;;
7330;SDS011;3706;49.198;7.064;2023-08-06T14:59:54;2.97;;;1.40;;
7330;SDS011;3706;49.198;7.064;2023-08-06T15:02:21;2.40;;;1.40;;
7330;SDS011;3706;49.198;7.064;2023-08-06T15:04:48;2.63;;;1.43;;
7330;SDS011;3706;49.198;7.064;2023-08-06T15:07:15;3.57;;;1.10;;
7330;SDS011;3706;49.198;7.064;2023-08-06T15:09:42;2.13;;;1.47;;
7330;SDS011;3706;49.198;7.064;2023-08-06T15:12:10;2.90;;;1.33;;
7330;SDS011;3706;49.198;7.064;2023-08-06T15:14:37;1.73;;;1.23;;
7330;SDS011;3706;49.198;7.064;2023-08-06T15:17:06;2.23;;;1.70;;
7330;SDS011;3706;49.198;7.064;2023-08-06T15:19:32;3.00;;;1.47;;
7330;SDS011;3706;49.198;7.064;2023-08-06T15:21:59;2.50;;;1.30;;